sensor_id;sensor_type;location;lat;lon;timestamp;P1;durP1;ratioP1;P2;durP2;ratioP2
25653;SDS011;13511;48.622;9.230;2023-11-21T00:00:20;8.35;;;3.63;;
25653;SDS011;13511;48.622;9.230;2023-11-21T00:02:46;4.65;;;3.13;;
25653;SDS011;13511;48.622;9.230;2023-11-21T00:05:12;10.65;;;3.65;;
25653;SDS011;13511;48.622;9.230;2023-11-21T00:07:42;5.28;;;3.40;;
25653;SDS011;13511;48.622;9.230;2023-11-21T00:10:08;7.82;;;3.00;;
25653;SDS011;13511;48.622;9.230;2023-11-21T00:12:35;5.53;;;3.30;;
25653;SDS011;13511;48.622;9.230;2023-11-21T00:15:01;7.10;;;3.30;;
25653;SDS011;13511;48.622;9.230;2023-11-21T00:17:27;8.18;;;3.42;;
25653;SDS011;13511;48.622;9.230;2023-11-21T00:19:53;4.80;;;3.55;;
25653;SDS011;13511;48.622;9.230;2023-11-21T00:22:19;12.23;;;3.60;;
25653;SDS011;13511;48.622;9.230;2023-11-21T00:24:46;8.57;;;3.15;;
25653;SDS011;13511;48.622;9.230;2023-11-21T00:27:12;9.02;;;2.95;;
25653;SDS011;13511;48.622;9.230;2023-11-21T00:29:39;7.18;;;3.70;;
25653;SDS011;13511;48.622;9.230;2023-11-21T00:32:05;5.72;;;3.03;;
25653;SDS011;13511;48.622;9.230;2023-11-21T00:34:32;8.38;;;3.25;;
25653;SDS011;13511;48.622;9.230;2023-11-21T00:36:58;5.70;;;3.45;;
25653;SDS011;13511;48.622;9.230;2023-11-21T00:39:24;7.95;;;2.63;;
25653;SDS011;13511;48.622;9.230;2023-11-21T00:41:51;8.30;;;3.50;;
25653;SDS011;13511;48.622;9.230;2023-11-21T00:44:17;11.70;;;4.15;;
25653;SDS011;13511;48.622;9.230;2023-11-21T00:46:43;5.25;;;2.67;;
25653;SDS011;13511;48.622;9.230;2023-11-21T00:49:09;4.72;;;2.97;;
25653;SDS011;13511;48.622;9.230;2023-11-21T00:51:35;4.10;;;2.70;;
25653;SDS011;13511;48.622;9.230;2023-11-21T00:54:02;6.63;;;2.95;;
25653;SDS011;13511;48.622;9.230;2023-11-21T00:56:28;4.38;;;3.15;;
25653;SDS011;13511;48.622;9.230;2023-11-21T00:58:54;7.18;;;3.15;;
25653;SDS011;13511;48.622;9.230;2023-11-21T01:01:20;11.23;;;2.95;;
25653;SDS011;13511;48.622;9.230;2023-11-21T01:03:49;4.68;;;3.25;;
25653;SDS011;13511;48.622;9.230;2023-11-21T01:06:15;4.72;;;3.38;;
25653;SDS011;13511;48.622;9.230;2023-11-21T01:08:41;6.10;;;3.22;;
25653;SDS011;13511;48.622;9.230;2023-11-21T01:11:07;6.40;;;3.15;;
25653;SDS011;13511;48.622;9.230;2023-11-21T01:13:35;10.00;;;3.50;;
25653;SDS011;13511;48.622;9.230;2023-11-21T01:16:02;6.65;;;3.63;;
25653;SDS011;13511;48.622;9.230;2023-11-21T01:18:28;11.35;;;3.25;;
25653;SDS011;13511;48.622;9.230;2023-11-21T01:20:54;5.18;;;3.65;;
25653;SDS011;13511;48.622;9.230;2023-11-21T01:23:21;5.05;;;3.40;;
25653;SDS011;13511;48.622;9.230;2023-11-21T01:25:47;3.58;;;2.97;;
25653;SDS011;13511;48.622;9.230;2023-11-21T01:28:13;6.55;;;3.17;;
25653;SDS011;13511;48.622;9.230;2023-11-21T01:30:39;10.13;;;3.53;;
25653;SDS011;13511;48.622;9.230;2023-11-21T01:33:05;4.65;;;3.25;;
25653;SDS011;13511;48.622;9.230;2023-11-21T01:35:31;5.57;;;3.45;;
25653;SDS011;13511;48.622;9.230;2023-11-21T01:37:57;4.43;;;3.42;;
25653;SDS011;13511;48.622;9.230;2023-11-21T01:40:23;5.93;;;3.38;;
25653;SDS011;13511;48.622;9.230;2023-11-21T01:42:49;8.07;;;3.35;;
25653;SDS011;13511;48.622;9.230;2023-11-21T01:45:15;5.18;;;3.22;;
25653;SDS011;13511;48.622;9.230;2023-11-21T01:47:41;6.03;;;3.05;;
25653;SDS011;13511;48.622;9.230;2023-11-21T01:50:08;7.78;;;2.97;;
25653;SDS011;13511;48.622;9.230;2023-11-21T01:52:37;6.97;;;3.03;;
25653;SDS011;13511;48.622;9.230;2023-11-21T01:55:04;11.10;;;3.28;;
25653;SDS011;13511;48.622;9.230;2023-11-21T01:57:33;5.05;;;2.95;;
25653;SDS011;13511;48.622;9.230;2023-11-21T01:59:59;6.97;;;3.30;;
25653;SDS011;13511;48.622;9.230;2023-11-21T02:02:40;6.82;;;2.97;;
25653;SDS011;13511;48.622;9.230;2023-11-21T02:05:06;6.72;;;2.92;;
25653;SDS011;13511;48.622;9.230;2023-11-21T02:07:33;7.00;;;2.92;;
25653;SDS011;13511;48.622;9.230;2023-11-21T02:10:00;5.30;;;2.60;;
25653;SDS011;13511;48.622;9.230;2023-11-21T02:12:26;6.03;;;2.63;;
25653;SDS011;13511;48.622;9.230;2023-11-21T02:14:52;4.35;;;2.30;;
25653;SDS011;13511;48.622;9.230;2023-11-21T02:17:18;3.58;;;2.90;;
25653;SDS011;13511;48.622;9.230;2023-11-21T02:19:45;4.82;;;2.45;;
25653;SDS011;13511;48.622;9.230;2023-11-21T02:22:12;4.07;;;2.35;;
25653;SDS011;13511;48.622;9.230;2023-11-21T02:24:40;3.97;;;2.50;;
25653;SDS011;13511;48.622;9.230;2023-11-21T02:27:07;7.30;;;3.05;;
25653;SDS011;13511;48.622;9.230;2023-11-21T02:29:33;3.92;;;2.97;;
25653;SDS011;13511;48.622;9.230;2023-11-21T02:31:59;3.45;;;2.75;;
25653;SDS011;13511;48.622;9.230;2023-11-21T02:34:25;2.65;;;2.22;;
25653;SDS011;13511;48.622;9.230;2023-11-21T02:36:51;4.00;;;2.45;;
25653;SDS011;13511;48.622;9.230;2023-11-21T02:39:17;2.38;;;2.17;;
25653;SDS011;13511;48.622;9.230;2023-11-21T02:41:47;3.35;;;2.53;;
25653;SDS011;13511;48.622;9.230;2023-11-21T02:44:13;3.80;;;2.97;;
25653;SDS011;13511;48.622;9.230;2023-11-21T02:46:39;4.38;;;2.92;;
25653;SDS011;13511;48.622;9.230;2023-11-21T02:49:05;3.47;;;2.15;;
25653;SDS011;13511;48.622;9.230;2023-11-21T02:51:32;4.28;;;2.20;;
25653;SDS011;13511;48.622;9.230;2023-11-21T02:53:58;2.67;;;2.13;;
25653;SDS011;13511;48.622;9.230;2023-11-21T02:56:25;4.05;;;2.72;;
25653;SDS011;13511;48.622;9.230;2023-11-21T02:58:51;7.25;;;2.53;;
25653;SDS011;13511;48.622;9.230;2023-11-21T03:01:17;4.47;;;2.30;;
25653;SDS011;13511;48.622;9.230;2023-11-21T03:03:43;6.10;;;2.20;;
25653;SDS011;13511;48.622;9.230;2023-11-21T03:06:09;3.95;;;1.92;;
25653;SDS011;13511;48.622;9.230;2023-11-21T03:08:35;4.35;;;2.28;;
25653;SDS011;13511;48.622;9.230;2023-11-21T03:11:01;26.38;;;3.53;;
25653;SDS011;13511;48.622;9.230;2023-11-21T03:13:30;2.60;;;2.40;;
25653;SDS011;13511;48.622;9.230;2023-11-21T03:15:56;4.90;;;2.85;;
25653;SDS011;13511;48.622;9.230;2023-11-21T03:18:22;3.45;;;2.33;;
25653;SDS011;13511;48.622;9.230;2023-11-21T03:20:48;5.15;;;2.20;;
25653;SDS011;13511;48.622;9.230;2023-11-21T03:23:14;5.50;;;1.88;;
25653;SDS011;13511;48.622;9.230;2023-11-21T03:25:40;3.10;;;2.47;;
25653;SDS011;13511;48.622;9.230;2023-11-21T03:28:06;2.00;;;1.90;;
25653;SDS011;13511;48.622;9.230;2023-11-21T03:30:33;2.22;;;2.00;;
25653;SDS011;13511;48.622;9.230;2023-11-21T03:32:59;7.63;;;3.90;;
25653;SDS011;13511;48.622;9.230;2023-11-21T03:35:25;3.83;;;2.20;;
25653;SDS011;13511;48.622;9.230;2023-11-21T03:37:52;2.30;;;1.95;;
25653;SDS011;13511;48.622;9.230;2023-11-21T03:40:17;3.17;;;2.20;;
25653;SDS011;13511;48.622;9.230;2023-11-21T03:42:43;4.45;;;2.15;;
25653;SDS011;13511;48.622;9.230;2023-11-21T03:45:09;4.53;;;2.08;;
25653;SDS011;13511;48.622;9.230;2023-11-21T03:47:37;3.05;;;2.00;;
25653;SDS011;13511;48.622;9.230;2023-11-21T03:50:03;2.20;;;1.85;;
25653;SDS011;13511;48.622;9.230;2023-11-21T03:52:29;2.25;;;2.08;;
25653;SDS011;13511;48.622;9.230;2023-11-21T03:54:55;1.98;;;1.88;;
25653;SDS011;13511;48.622;9.230;2023-11-21T03:57:21;2.58;;;1.92;;
25653;SDS011;13511;48.622;9.230;2023-11-21T03:59:47;2.17;;;1.65;;
25653;SDS011;13511;48.622;9.230;2023-11-21T04:02:13;5.75;;;1.90;;
25653;SDS011;13511;48.622;9.230;2023-11-21T04:04:39;3.10;;;1.80;;
25653;SDS011;13511;48.622;9.230;2023-11-21T04:07:05;4.90;;;2.65;;
25653;SDS011;13511;48.622;9.230;2023-11-21T04:09:31;2.55;;;1.95;;
25653;SDS011;13511;48.622;9.230;2023-11-21T04:11:57;1.88;;;1.77;;
25653;SDS011;13511;48.622;9.230;2023-11-21T04:14:23;3.33;;;1.77;;
25653;SDS011;13511;48.622;9.230;2023-11-21T04:16:49;4.82;;;1.80;;
25653;SDS011;13511;48.622;9.230;2023-11-21T04:19:15;3.60;;;2.00;;
25653;SDS011;13511;48.622;9.230;2023-11-21T04:21:42;3.17;;;1.70;;
25653;SDS011;13511;48.622;9.230;2023-11-21T04:24:08;1.80;;;1.70;;
25653;SDS011;13511;48.622;9.230;2023-11-21T04:26:34;1.95;;;1.75;;
25653;SDS011;13511;48.622;9.230;2023-11-21T04:29:00;1.95;;;1.70;;
25653;SDS011;13511;48.622;9.230;2023-11-21T04:31:26;4.68;;;1.70;;
25653;SDS011;13511;48.622;9.230;2023-11-21T04:33:52;3.90;;;1.70;;
25653;SDS011;13511;48.622;9.230;2023-11-21T04:36:18;2.05;;;1.80;;
25653;SDS011;13511;48.622;9.230;2023-11-21T04:38:44;2.78;;;1.50;;
25653;SDS011;13511;48.622;9.230;2023-11-21T04:41:10;2.15;;;1.48;;
25653;SDS011;13511;48.622;9.230;2023-11-21T04:43:37;2.20;;;1.60;;
25653;SDS011;13511;48.622;9.230;2023-11-21T04:46:03;1.70;;;1.60;;
25653;SDS011;13511;48.622;9.230;2023-11-21T04:48:29;8.43;;;1.80;;
25653;SDS011;13511;48.622;9.230;2023-11-21T04:50:55;1.90;;;1.65;;
25653;SDS011;13511;48.622;9.230;2023-11-21T04:53:21;4.90;;;1.80;;
25653;SDS011;13511;48.622;9.230;2023-11-21T04:55:47;3.03;;;1.55;;
25653;SDS011;13511;48.622;9.230;2023-11-21T04:58:13;1.45;;;1.33;;
25653;SDS011;13511;48.622;9.230;2023-11-21T05:00:39;1.30;;;1.20;;
25653;SDS011;13511;48.622;9.230;2023-11-21T05:03:06;1.50;;;1.40;;
25653;SDS011;13511;48.622;9.230;2023-11-21T05:05:32;1.30;;;1.20;;
25653;SDS011;13511;48.622;9.230;2023-11-21T05:08:01;1.40;;;1.38;;
25653;SDS011;13511;48.622;9.230;2023-11-21T05:10:28;2.33;;;1.45;;
25653;SDS011;13511;48.622;9.230;2023-11-21T05:12:55;1.70;;;1.60;;
25653;SDS011;13511;48.622;9.230;2023-11-21T05:15:21;1.77;;;1.42;;
25653;SDS011;13511;48.622;9.230;2023-11-21T05:17:48;4.00;;;1.40;;
25653;SDS011;13511;48.622;9.230;2023-11-21T05:20:17;1.15;;;1.15;;
25653;SDS011;13511;48.622;9.230;2023-11-21T05:22:46;1.85;;;1.75;;
25653;SDS011;13511;48.622;9.230;2023-11-21T05:25:13;2.67;;;1.15;;
25653;SDS011;13511;48.622;9.230;2023-11-21T05:27:39;1.30;;;1.20;;
25653;SDS011;13511;48.622;9.230;2023-11-21T05:30:05;1.65;;;1.20;;
25653;SDS011;13511;48.622;9.230;2023-11-21T05:32:34;2.20;;;1.10;;
25653;SDS011;13511;48.622;9.230;2023-11-21T05:35:00;1.13;;;1.10;;
25653;SDS011;13511;48.622;9.230;2023-11-21T05:37:26;2.13;;;1.40;;
25653;SDS011;13511;48.622;9.230;2023-11-21T05:39:53;1.10;;;1.10;;
25653;SDS011;13511;48.622;9.230;2023-11-21T05:42:21;2.03;;;1.20;;
25653;SDS011;13511;48.622;9.230;2023-11-21T05:44:47;2.28;;;1.27;;
25653;SDS011;13511;48.622;9.230;2023-11-21T05:47:13;3.50;;;1.30;;
25653;SDS011;13511;48.622;9.230;2023-11-21T05:49:39;3.38;;;1.50;;
25653;SDS011;13511;48.622;9.230;2023-11-21T05:52:05;1.20;;;1.20;;
25653;SDS011;13511;48.622;9.230;2023-11-21T05:54:31;1.33;;;1.23;;
25653;SDS011;13511;48.622;9.230;2023-11-21T05:56:57;2.53;;;1.15;;
25653;SDS011;13511;48.622;9.230;2023-11-21T05:59:23;2.45;;;1.20;;
25653;SDS011;13511;48.622;9.230;2023-11-21T06:01:49;1.48;;;1.20;;
25653;SDS011;13511;48.622;9.230;2023-11-21T06:04:15;1.30;;;1.20;;
25653;SDS011;13511;48.622;9.230;2023-11-21T06:06:43;1.58;;;1.48;;
25653;SDS011;13511;48.622;9.230;2023-11-21T06:09:09;1.65;;;1.60;;
25653;SDS011;13511;48.622;9.230;2023-11-21T06:11:36;1.92;;;1.50;;
25653;SDS011;13511;48.622;9.230;2023-11-21T06:14:02;2.60;;;1.55;;
25653;SDS011;13511;48.622;9.230;2023-11-21T06:16:29;1.63;;;1.52;;
25653;SDS011;13511;48.622;9.230;2023-11-21T06:18:55;5.80;;;3.15;;
25653;SDS011;13511;48.622;9.230;2023-11-21T06:21:20;4.28;;;3.90;;
25653;SDS011;13511;48.622;9.230;2023-11-21T06:23:46;2.85;;;2.65;;
25653;SDS011;13511;48.622;9.230;2023-11-21T06:26:12;2.38;;;2.25;;
25653;SDS011;13511;48.622;9.230;2023-11-21T06:28:39;4.45;;;1.42;;
25653;SDS011;13511;48.622;9.230;2023-11-21T06:31:06;3.03;;;1.40;;
25653;SDS011;13511;48.622;9.230;2023-11-21T06:33:32;4.30;;;2.10;;
25653;SDS011;13511;48.622;9.230;2023-11-21T06:35:58;4.00;;;1.52;;
25653;SDS011;13511;48.622;9.230;2023-11-21T06:38:25;1.45;;;1.20;;
25653;SDS011;13511;48.622;9.230;2023-11-21T06:40:54;3.78;;;1.52;;
25653;SDS011;13511;48.622;9.230;2023-11-21T06:43:20;2.38;;;1.35;;
25653;SDS011;13511;48.622;9.230;2023-11-21T06:45:47;3.72;;;1.80;;
25653;SDS011;13511;48.622;9.230;2023-11-21T06:48:13;1.67;;;1.50;;
25653;SDS011;13511;48.622;9.230;2023-11-21T06:50:40;1.95;;;1.38;;
25653;SDS011;13511;48.622;9.230;2023-11-21T06:53:06;1.60;;;1.50;;
25653;SDS011;13511;48.622;9.230;2023-11-21T06:55:33;5.20;;;1.73;;
25653;SDS011;13511;48.622;9.230;2023-11-21T06:57:59;3.53;;;1.60;;
25653;SDS011;13511;48.622;9.230;2023-11-21T07:00:26;1.75;;;1.48;;
25653;SDS011;13511;48.622;9.230;2023-11-21T07:02:53;2.85;;;1.58;;
25653;SDS011;13511;48.622;9.230;2023-11-21T07:05:20;1.58;;;1.48;;
25653;SDS011;13511;48.622;9.230;2023-11-21T07:07:46;2.35;;;1.50;;
25653;SDS011;13511;48.622;9.230;2023-11-21T07:10:13;3.10;;;1.70;;
25653;SDS011;13511;48.622;9.230;2023-11-21T07:12:39;1.90;;;1.70;;
25653;SDS011;13511;48.622;9.230;2023-11-21T07:15:06;1.95;;;1.80;;
25653;SDS011;13511;48.622;9.230;2023-11-21T07:17:34;4.13;;;1.88;;
25653;SDS011;13511;48.622;9.230;2023-11-21T07:20:00;2.35;;;1.70;;
25653;SDS011;13511;48.622;9.230;2023-11-21T07:22:26;1.70;;;1.60;;
25653;SDS011;13511;48.622;9.230;2023-11-21T07:24:52;1.98;;;1.60;;
25653;SDS011;13511;48.622;9.230;2023-11-21T07:27:19;1.35;;;1.35;;
25653;SDS011;13511;48.622;9.230;2023-11-21T07:29:45;1.63;;;1.52;;
25653;SDS011;13511;48.622;9.230;2023-11-21T07:32:13;1.80;;;1.50;;
25653;SDS011;13511;48.622;9.230;2023-11-21T07:34:39;1.48;;;1.40;;
25653;SDS011;13511;48.622;9.230;2023-11-21T07:37:06;1.50;;;1.40;;
25653;SDS011;13511;48.622;9.230;2023-11-21T07:39:33;3.20;;;1.75;;
25653;SDS011;13511;48.622;9.230;2023-11-21T07:41:59;2.80;;;1.70;;
25653;SDS011;13511;48.622;9.230;2023-11-21T07:44:25;3.85;;;2.13;;
25653;SDS011;13511;48.622;9.230;2023-11-21T07:46:51;2.45;;;1.45;;
25653;SDS011;13511;48.622;9.230;2023-11-21T07:49:22;3.33;;;1.40;;
25653;SDS011;13511;48.622;9.230;2023-11-21T07:51:48;2.05;;;1.40;;
25653;SDS011;13511;48.622;9.230;2023-11-21T07:54:14;3.78;;;1.40;;
25653;SDS011;13511;48.622;9.230;2023-11-21T07:56:40;1.73;;;1.52;;
25653;SDS011;13511;48.622;9.230;2023-11-21T07:59:07;4.45;;;1.20;;
25653;SDS011;13511;48.622;9.230;2023-11-21T08:01:33;2.08;;;1.27;;
25653;SDS011;13511;48.622;9.230;2023-11-21T08:03:59;2.60;;;1.50;;
25653;SDS011;13511;48.622;9.230;2023-11-21T08:06:28;1.38;;;1.27;;
25653;SDS011;13511;48.622;9.230;2023-11-21T08:08:54;3.40;;;1.73;;
25653;SDS011;13511;48.622;9.230;2023-11-21T08:11:20;3.17;;;1.45;;
25653;SDS011;13511;48.622;9.230;2023-11-21T08:13:46;4.68;;;1.38;;
25653;SDS011;13511;48.622;9.230;2023-11-21T08:16:12;1.55;;;1.30;;
25653;SDS011;13511;48.622;9.230;2023-11-21T08:18:38;2.60;;;1.45;;
25653;SDS011;13511;48.622;9.230;2023-11-21T08:21:06;2.22;;;1.90;;
25653;SDS011;13511;48.622;9.230;2023-11-21T08:23:32;2.25;;;1.58;;
25653;SDS011;13511;48.622;9.230;2023-11-21T08:25:59;3.35;;;1.50;;
25653;SDS011;13511;48.622;9.230;2023-11-21T08:28:25;3.75;;;1.88;;
25653;SDS011;13511;48.622;9.230;2023-11-21T08:30:54;2.30;;;1.40;;
25653;SDS011;13511;48.622;9.230;2023-11-21T08:33:20;1.42;;;1.40;;
25653;SDS011;13511;48.622;9.230;2023-11-21T08:35:46;1.77;;;1.20;;
25653;SDS011;13511;48.622;9.230;2023-11-21T08:38:12;1.65;;;1.48;;
25653;SDS011;13511;48.622;9.230;2023-11-21T08:40:38;1.40;;;1.30;;
25653;SDS011;13511;48.622;9.230;2023-11-21T08:43:04;1.70;;;1.40;;
25653;SDS011;13511;48.622;9.230;2023-11-21T08:45:30;3.90;;;1.58;;
25653;SDS011;13511;48.622;9.230;2023-11-21T08:47:59;1.55;;;1.45;;
25653;SDS011;13511;48.622;9.230;2023-11-21T08:50:25;5.32;;;1.60;;
25653;SDS011;13511;48.622;9.230;2023-11-21T08:52:51;3.33;;;1.70;;
25653;SDS011;13511;48.622;9.230;2023-11-21T08:55:17;1.70;;;1.60;;
25653;SDS011;13511;48.622;9.230;2023-11-21T08:57:45;1.83;;;1.67;;
25653;SDS011;13511;48.622;9.230;2023-11-21T09:00:14;2.50;;;1.65;;
25653;SDS011;13511;48.622;9.230;2023-11-21T09:02:41;3.00;;;1.63;;
25653;SDS011;13511;48.622;9.230;2023-11-21T09:05:08;1.48;;;1.30;;
25653;SDS011;13511;48.622;9.230;2023-11-21T09:07:34;1.52;;;1.40;;
25653;SDS011;13511;48.622;9.230;2023-11-21T09:10:01;1.80;;;1.40;;
25653;SDS011;13511;48.622;9.230;2023-11-21T09:12:27;1.60;;;1.50;;
25653;SDS011;13511;48.622;9.230;2023-11-21T09:14:53;2.13;;;1.70;;
25653;SDS011;13511;48.622;9.230;2023-11-21T09:17:19;4.97;;;1.60;;
25653;SDS011;13511;48.622;9.230;2023-11-21T09:19:45;1.73;;;1.63;;
25653;SDS011;13511;48.622;9.230;2023-11-21T09:22:15;3.35;;;1.80;;
25653;SDS011;13511;48.622;9.230;2023-11-21T09:24:41;1.80;;;1.70;;
25653;SDS011;13511;48.622;9.230;2023-11-21T09:27:07;1.63;;;1.52;;
25653;SDS011;13511;48.622;9.230;2023-11-21T09:29:34;1.80;;;1.70;;
25653;SDS011;13511;48.622;9.230;2023-11-21T09:32:03;1.77;;;1.67;;
25653;SDS011;13511;48.622;9.230;2023-11-21T09:34:31;4.63;;;1.80;;
25653;SDS011;13511;48.622;9.230;2023-11-21T09:36:57;1.85;;;1.75;;
25653;SDS011;13511;48.622;9.230;2023-11-21T09:39:23;1.80;;;1.70;;
25653;SDS011;13511;48.622;9.230;2023-11-21T09:41:52;1.95;;;1.83;;
25653;SDS011;13511;48.622;9.230;2023-11-21T09:47:07;1.83;;;1.60;;
25653;SDS011;13511;48.622;9.230;2023-11-21T09:49:35;1.85;;;1.77;;
25653;SDS011;13511;48.622;9.230;2023-11-21T09:52:02;2.42;;;2.28;;
25653;SDS011;13511;48.622;9.230;2023-11-21T09:54:28;1.90;;;1.80;;
25653;SDS011;13511;48.622;9.230;2023-11-21T09:56:56;1.60;;;1.60;;
25653;SDS011;13511;48.622;9.230;2023-11-21T09:59:23;1.80;;;1.70;;
25653;SDS011;13511;48.622;9.230;2023-11-21T10:01:49;2.60;;;1.70;;
25653;SDS011;13511;48.622;9.230;2023-11-21T10:04:15;3.13;;;1.65;;
25653;SDS011;13511;48.622;9.230;2023-11-21T10:06:42;3.30;;;1.80;;
25653;SDS011;13511;48.622;9.230;2023-11-21T10:09:13;2.30;;;2.10;;
25653;SDS011;13511;48.622;9.230;2023-11-21T10:11:40;2.00;;;1.90;;
25653;SDS011;13511;48.622;9.230;2023-11-21T10:14:10;2.67;;;1.80;;
25653;SDS011;13511;48.622;9.230;2023-11-21T10:16:38;1.70;;;1.60;;
25653;SDS011;13511;48.622;9.230;2023-11-21T10:19:04;2.97;;;1.40;;
25653;SDS011;13511;48.622;9.230;2023-11-21T10:21:33;1.42;;;1.42;;
25653;SDS011;13511;48.622;9.230;2023-11-21T10:23:59;1.50;;;1.50;;
25653;SDS011;13511;48.622;9.230;2023-11-21T10:26:26;3.20;;;1.40;;
25653;SDS011;13511;48.622;9.230;2023-11-21T10:28:56;1.55;;;1.50;;
25653;SDS011;13511;48.622;9.230;2023-11-21T10:31:23;2.25;;;2.15;;
25653;SDS011;13511;48.622;9.230;2023-11-21T10:33:52;1.42;;;1.42;;
25653;SDS011;13511;48.622;9.230;2023-11-21T10:36:25;1.60;;;1.50;;
25653;SDS011;13511;48.622;9.230;2023-11-21T10:38:51;1.50;;;1.40;;
25653;SDS011;13511;48.622;9.230;2023-11-21T10:41:18;2.40;;;1.48;;
25653;SDS011;13511;48.622;9.230;2023-11-21T10:43:44;2.45;;;1.83;;
25653;SDS011;13511;48.622;9.230;2023-11-21T10:46:10;1.90;;;1.80;;
25653;SDS011;13511;48.622;9.230;2023-11-21T10:48:36;3.88;;;2.03;;
25653;SDS011;13511;48.622;9.230;2023-11-21T10:51:06;2.13;;;2.03;;
25653;SDS011;13511;48.622;9.230;2023-11-21T10:53:32;4.55;;;2.22;;
25653;SDS011;13511;48.622;9.230;2023-11-21T10:56:02;2.03;;;1.92;;
25653;SDS011;13511;48.622;9.230;2023-11-21T10:58:31;2.80;;;2.60;;
25653;SDS011;13511;48.622;9.230;2023-11-21T11:00:58;2.40;;;2.30;;
25653;SDS011;13511;48.622;9.230;2023-11-21T11:03:24;4.35;;;3.25;;
25653;SDS011;13511;48.622;9.230;2023-11-21T11:05:50;3.30;;;2.83;;
25653;SDS011;13511;48.622;9.230;2023-11-21T11:08:20;2.50;;;2.38;;
25653;SDS011;13511;48.622;9.230;2023-11-21T11:10:51;4.75;;;2.30;;
25653;SDS011;13511;48.622;9.230;2023-11-21T11:13:17;2.97;;;2.78;;
25653;SDS011;13511;48.622;9.230;2023-11-21T11:15:47;2.80;;;2.60;;
25653;SDS011;13511;48.622;9.230;2023-11-21T11:18:13;2.55;;;2.45;;
25653;SDS011;13511;48.622;9.230;2023-11-21T11:20:39;2.75;;;2.55;;
25653;SDS011;13511;48.622;9.230;2023-11-21T11:25:47;2.25;;;2.10;;
25653;SDS011;13511;48.622;9.230;2023-11-21T11:28:27;4.70;;;2.33;;
25653;SDS011;13511;48.622;9.230;2023-11-21T11:31:39;2.53;;;2.40;;
25653;SDS011;13511;48.622;9.230;2023-11-21T11:33:47;2.17;;;2.08;;
25653;SDS011;13511;48.622;9.230;2023-11-21T11:36:22;2.72;;;2.22;;
25653;SDS011;13511;48.622;9.230;2023-11-21T11:38:50;2.30;;;2.10;;
25653;SDS011;13511;48.622;9.230;2023-11-21T11:41:27;3.53;;;1.98;;
25653;SDS011;13511;48.622;9.230;2023-11-21T11:43:54;2.40;;;2.20;;
25653;SDS011;13511;48.622;9.230;2023-11-21T11:46:20;2.33;;;2.10;;
25653;SDS011;13511;48.622;9.230;2023-11-21T11:49:06;2.40;;;2.10;;
25653;SDS011;13511;48.622;9.230;2023-11-21T11:51:33;3.08;;;1.90;;
25653;SDS011;13511;48.622;9.230;2023-11-21T11:54:00;3.42;;;2.17;;
25653;SDS011;13511;48.622;9.230;2023-11-21T11:56:27;3.05;;;2.10;;
25653;SDS011;13511;48.622;9.230;2023-11-21T11:58:56;4.30;;;2.33;;
25653;SDS011;13511;48.622;9.230;2023-11-21T12:01:24;4.88;;;2.03;;
25653;SDS011;13511;48.622;9.230;2023-11-21T12:06:35;3.10;;;2.80;;
25653;SDS011;13511;48.622;9.230;2023-11-21T12:09:04;1.90;;;1.80;;
25653;SDS011;13511;48.622;9.230;2023-11-21T12:11:30;1.58;;;1.48;;
25653;SDS011;13511;48.622;9.230;2023-11-21T12:13:57;1.23;;;1.23;;
25653;SDS011;13511;48.622;9.230;2023-11-21T12:16:24;2.15;;;1.35;;
25653;SDS011;13511;48.622;9.230;2023-11-21T12:18:52;1.70;;;1.60;;
25653;SDS011;13511;48.622;9.230;2023-11-21T12:21:19;1.50;;;1.50;;
25653;SDS011;13511;48.622;9.230;2023-11-21T12:23:45;1.70;;;1.60;;
25653;SDS011;13511;48.622;9.230;2023-11-21T12:26:12;1.88;;;1.60;;
25653;SDS011;13511;48.622;9.230;2023-11-21T12:28:38;1.90;;;1.75;;
25653;SDS011;13511;48.622;9.230;2023-11-21T12:31:04;2.25;;;1.80;;
25653;SDS011;13511;48.622;9.230;2023-11-21T12:33:31;2.88;;;2.00;;
25653;SDS011;13511;48.622;9.230;2023-11-21T12:35:57;2.72;;;1.83;;
25653;SDS011;13511;48.622;9.230;2023-11-21T12:38:23;1.50;;;1.50;;
25653;SDS011;13511;48.622;9.230;2023-11-21T12:40:50;2.05;;;1.67;;
25653;SDS011;13511;48.622;9.230;2023-11-21T12:43:16;1.98;;;1.83;;
25653;SDS011;13511;48.622;9.230;2023-11-21T12:45:45;1.95;;;1.85;;
25653;SDS011;13511;48.622;9.230;2023-11-21T12:48:11;1.88;;;1.77;;
25653;SDS011;13511;48.622;9.230;2023-11-21T12:50:38;1.77;;;1.67;;
25653;SDS011;13511;48.622;9.230;2023-11-21T12:53:07;1.30;;;1.30;;
25653;SDS011;13511;48.622;9.230;2023-11-21T12:55:35;2.25;;;1.67;;
25653;SDS011;13511;48.622;9.230;2023-11-21T12:58:06;1.95;;;1.48;;
25653;SDS011;13511;48.622;9.230;2023-11-21T13:00:39;2.10;;;2.00;;
25653;SDS011;13511;48.622;9.230;2023-11-21T13:03:08;2.28;;;1.70;;
25653;SDS011;13511;48.622;9.230;2023-11-21T13:05:39;1.80;;;1.50;;
25653;SDS011;13511;48.622;9.230;2023-11-21T13:08:09;1.73;;;1.63;;
25653;SDS011;13511;48.622;9.230;2023-11-21T13:10:38;1.90;;;1.80;;
25653;SDS011;13511;48.622;9.230;2023-11-21T13:13:05;2.40;;;1.73;;
25653;SDS011;13511;48.622;9.230;2023-11-21T13:15:33;1.85;;;1.75;;
25653;SDS011;13511;48.622;9.230;2023-11-21T13:18:01;2.55;;;1.80;;
25653;SDS011;13511;48.622;9.230;2023-11-21T13:20:28;2.20;;;2.10;;
25653;SDS011;13511;48.622;9.230;2023-11-21T13:22:55;3.75;;;2.15;;
25653;SDS011;13511;48.622;9.230;2023-11-21T13:25:26;1.75;;;1.60;;
25653;SDS011;13511;48.622;9.230;2023-11-21T13:27:53;3.75;;;1.90;;
25653;SDS011;13511;48.622;9.230;2023-11-21T13:30:19;1.85;;;1.75;;
25653;SDS011;13511;48.622;9.230;2023-11-21T13:32:51;1.95;;;1.60;;
25653;SDS011;13511;48.622;9.230;2023-11-21T13:35:17;1.75;;;1.65;;
25653;SDS011;13511;48.622;9.230;2023-11-21T13:40:16;2.17;;;1.65;;
25653;SDS011;13511;48.622;9.230;2023-11-21T13:42:47;2.22;;;2.10;;
25653;SDS011;13511;48.622;9.230;2023-11-21T13:45:13;2.30;;;2.20;;
25653;SDS011;13511;48.622;9.230;2023-11-21T13:47:39;3.25;;;2.10;;
25653;SDS011;13511;48.622;9.230;2023-11-21T13:50:05;2.67;;;2.47;;
25653;SDS011;13511;48.622;9.230;2023-11-21T13:52:42;2.28;;;2.05;;
25653;SDS011;13511;48.622;9.230;2023-11-21T13:55:09;4.28;;;2.30;;
25653;SDS011;13511;48.622;9.230;2023-11-21T13:57:40;2.08;;;1.98;;
25653;SDS011;13511;48.622;9.230;2023-11-21T14:00:08;2.70;;;2.50;;
25653;SDS011;13511;48.622;9.230;2023-11-21T14:02:51;2.85;;;2.30;;
25653;SDS011;13511;48.622;9.230;2023-11-21T14:05:17;2.22;;;2.13;;
25653;SDS011;13511;48.622;9.230;2023-11-21T14:07:54;3.30;;;2.13;;
25653;SDS011;13511;48.622;9.230;2023-11-21T14:10:21;2.22;;;2.10;;
25653;SDS011;13511;48.622;9.230;2023-11-21T14:12:49;2.58;;;2.20;;
25653;SDS011;13511;48.622;9.230;2023-11-21T14:15:15;2.28;;;2.00;;
25653;SDS011;13511;48.622;9.230;2023-11-21T14:17:44;2.63;;;2.42;;
25653;SDS011;13511;48.622;9.230;2023-11-21T14:20:10;2.53;;;2.28;;
25653;SDS011;13511;48.622;9.230;2023-11-21T14:22:45;2.67;;;2.25;;
25653;SDS011;13511;48.622;9.230;2023-11-21T14:25:12;4.10;;;3.20;;
25653;SDS011;13511;48.622;9.230;2023-11-21T14:27:39;3.25;;;2.80;;
25653;SDS011;13511;48.622;9.230;2023-11-21T14:30:05;2.88;;;2.60;;
25653;SDS011;13511;48.622;9.230;2023-11-21T14:32:31;2.60;;;2.40;;
25653;SDS011;13511;48.622;9.230;2023-11-21T14:34:58;1.60;;;1.50;;
25653;SDS011;13511;48.622;9.230;2023-11-21T14:37:23;1.45;;;1.35;;
25653;SDS011;13511;48.622;9.230;2023-11-21T14:39:50;1.67;;;1.40;;
25653;SDS011;13511;48.622;9.230;2023-11-21T14:42:16;1.50;;;1.50;;
25653;SDS011;13511;48.622;9.230;2023-11-21T14:44:49;1.73;;;1.63;;
25653;SDS011;13511;48.622;9.230;2023-11-21T14:47:16;1.35;;;1.35;;
25653;SDS011;13511;48.622;9.230;2023-11-21T14:49:49;1.98;;;1.88;;
25653;SDS011;13511;48.622;9.230;2023-11-21T14:52:21;1.85;;;1.70;;
25653;SDS011;13511;48.622;9.230;2023-11-21T14:55:05;3.28;;;1.98;;
25653;SDS011;13511;48.622;9.230;2023-11-21T14:57:46;1.70;;;1.60;;